Time;durP1;ratioP1;P1;durP2;ratioP2;P2;SDS_P1;SDS_P2;PMS_P1;PMS_P2;Temp;Humidity;BMP_temperature;BMP_pressure;BME280_temperature;BME280_humidity;BME280_pressure;Samples;Min_cycle;Max_cycle;Signal;HPM_P1;HPM_P2
2022/08/30 00:01:05;;;;;;;7.63;3.45;;;15.40;99.90;;;;;;5033575;28;20108;-88
2022/08/30 00:03:33;;;;;;;5.45;3.60;;;15.40;99.90;;;;;;5000063;28;20502;-86
2022/08/30 00:05:59;;;;;;;4.68;3.47;;;15.40;99.90;;;;;;5033653;28;20136;-85
2022/08/30 00:08:25;;;;;;;4.55;3.67;;;15.40;99.90;;;;;;5015988;28;20222;-85
2022/08/30 00:10:51;;;;;;;6.53;3.90;;;15.40;99.90;;;;;;5016251;28;20085;-84
2022/08/30 00:13:18;;;;;;;6.38;4.00;;;15.40;99.90;;;;;;5033361;28;20486;-85
2022/08/30 00:15:45;;;;;;;7.15;3.85;;;15.40;99.90;;;;;;5016318;28;20081;-85
2022/08/30 00:18:10;;;;;;;2.90;2.15;;;15.40;99.90;;;;;;5033844;28;20068;-85
2022/08/30 00:20:36;;;;;;;4.82;3.05;;;15.40;99.90;;;;;;4999731;28;20471;-85
2022/08/30 00:23:03;;;;;;;6.05;3.85;;;15.40;99.90;;;;;;5016147;28;20136;-86
2022/08/30 00:25:29;;;;;;;4.65;3.80;;;15.40;99.90;;;;;;5015930;28;20550;-85
2022/08/30 00:27:55;;;;;;;5.30;4.10;;;15.40;99.90;;;;;;4999612;28;20210;-85
2022/08/30 00:30:21;;;;;;;8.20;4.47;;;15.40;99.90;;;;;;5015231;28;20407;-85
2022/08/30 00:32:47;;;;;;;4.80;3.90;;;15.40;99.90;;;;;;5033625;28;20123;-85
2022/08/30 00:35:17;;;;;;;6.28;4.50;;;15.40;99.90;;;;;;5000130;28;20410;-85
2022/08/30 00:37:43;;;;;;;5.30;3.80;;;15.40;99.90;;;;;;5015589;28;20049;-85
2022/08/30 00:40:10;;;;;;;7.78;4.35;;;15.30;99.90;;;;;;5033207;28;20085;-85
2022/08/30 00:42:37;;;;;;;13.15;4.55;;;15.30;99.90;;;;;;5015607;28;20049;-85
2022/08/30 00:45:18;;;;;;;5.38;3.88;;;15.30;99.90;;;;;;5033317;28;20402;-85
2022/08/30 00:47:44;;;;;;;7.50;3.78;;;15.40;99.90;;;;;;5033344;28;20045;-85
2022/08/30 00:50:11;;;;;;;7.90;4.30;;;15.30;99.90;;;;;;5015257;28;20103;-85
2022/08/30 00:52:40;;;;;;;6.03;4.38;;;15.30;99.90;;;;;;5033134;28;20403;-85
2022/08/30 00:55:06;;;;;;;7.28;4.50;;;15.30;99.90;;;;;;5015517;28;20132;-86
2022/08/30 00:57:34;;;;;;;4.80;2.80;;;15.30;99.90;;;;;;5015632;28;20517;-85
2022/08/30 01:00:02;;;;;;;7.55;4.05;;;15.30;99.90;;;;;;5015441;28;20103;-85
2022/08/30 01:02:32;;;;;;;7.03;3.47;;;15.30;99.90;;;;;;5015514;28;20446;-85
2022/08/30 01:05:00;;;;;;;6.05;4.47;;;15.30;99.90;;;;;;5033082;28;20053;-85
2022/08/30 01:07:26;;;;;;;7.70;3.80;;;15.30;99.90;;;;;;5015292;28;20070;-84
2022/08/30 01:09:52;;;;;;;4.18;2.60;;;15.30;99.90;;;;;;5032783;28;20053;-85
2022/08/30 01:12:17;;;;;;;6.72;3.60;;;15.30;99.90;;;;;;5033447;28;20046;-85
2022/08/30 01:14:44;;;;;;;4.47;3.53;;;15.30;99.90;;;;;;4999148;28;20095;-85
2022/08/30 01:17:10;;;;;;;9.95;3.75;;;15.30;99.90;;;;;;4999546;28;20453;-86
2022/08/30 01:19:51;;;;;;;5.55;3.63;;;15.30;99.90;;;;;;5032427;28;20188;-85
2022/08/30 01:22:37;;;;;;;4.85;3.17;;;15.30;99.90;;;;;;5032765;28;20100;-86
2022/08/30 01:25:07;;;;;;;8.52;3.60;;;15.30;99.90;;;;;;5015837;28;20449;-85
2022/08/30 01:27:37;;;;;;;12.27;4.30;;;15.30;99.90;;;;;;5032904;28;20046;-86
2022/08/30 01:30:04;;;;;;;5.53;4.10;;;15.30;99.90;;;;;;5015440;28;20135;-85
2022/08/30 01:32:30;;;;;;;7.57;3.67;;;15.20;99.90;;;;;;5015055;28;20044;-84
2022/08/30 01:34:57;;;;;;;6.25;3.95;;;15.20;99.90;;;;;;5015532;28;20391;-85
2022/08/30 01:37:29;;;;;;;8.75;4.07;;;15.20;99.90;;;;;;5032598;28;20502;-85
2022/08/30 01:39:55;;;;;;;4.95;3.70;;;15.10;99.90;;;;;;5015113;28;20038;-85
2022/08/30 01:42:21;;;;;;;8.60;4.20;;;15.10;99.90;;;;;;5018893;28;20095;-85
2022/08/30 01:44:48;;;;;;;11.80;4.30;;;15.00;99.90;;;;;;5018811;28;20380;-84
2022/08/30 01:47:16;;;;;;;6.82;3.63;;;15.00;99.90;;;;;;5018601;28;20042;-85
2022/08/30 01:49:43;;;;;;;4.43;2.85;;;15.00;99.90;;;;;;5018552;28;20133;-85
2022/08/30 01:52:10;;;;;;;6.03;3.83;;;14.90;99.90;;;;;;5036235;28;20045;-84
2022/08/30 01:54:38;;;;;;;7.75;4.47;;;14.90;99.90;;;;;;5036138;28;20087;-85
2022/08/30 01:57:06;;;;;;;9.40;4.53;;;14.90;99.90;;;;;;5018702;28;20055;-85
2022/08/30 01:59:33;;;;;;;6.57;3.40;;;14.90;99.90;;;;;;5035789;28;20110;-86
2022/08/30 02:01:58;;;;;;;6.78;4.50;;;14.90;99.90;;;;;;5018638;28;20067;-85
2022/08/30 02:04:25;;;;;;;7.57;4.50;;;14.90;99.90;;;;;;5036562;28;20053;-85
2022/08/30 02:06:52;;;;;;;6.85;4.65;;;14.80;99.90;;;;;;5035802;28;20061;-85
2022/08/30 02:09:18;;;;;;;8.57;5.07;;;14.80;99.90;;;;;;5018459;28;20056;-85
2022/08/30 02:11:44;;;;;;;7.53;5.07;;;14.80;99.90;;;;;;5035752;28;20132;-85
2022/08/30 02:14:10;;;;;;;8.27;4.85;;;14.70;99.90;;;;;;5035688;28;20053;-85
2022/08/30 02:16:36;;;;;;;7.07;4.43;;;14.70;99.90;;;;;;5018097;28;20053;-85
2022/08/30 02:19:02;;;;;;;5.40;3.60;;;14.70;99.90;;;;;;5035759;28;20130;-85
2022/08/30 02:21:28;;;;;;;5.60;3.63;;;14.70;99.90;;;;;;5035389;28;20084;-85
2022/08/30 02:23:54;;;;;;;7.65;4.90;;;14.70;99.90;;;;;;5018398;28;20143;-84
2022/08/30 02:26:20;;;;;;;10.57;5.28;;;14.60;99.90;;;;;;5018300;28;20049;-84
2022/08/30 02:28:46;;;;;;;5.15;3.60;;;14.60;99.90;;;;;;5017981;28;20081;-85
2022/08/30 02:31:12;;;;;;;8.80;5.50;;;14.60;99.90;;;;;;5035342;28;20053;-85
2022/08/30 02:33:38;;;;;;;7.30;4.65;;;14.50;99.90;;;;;;5035529;28;20462;-86
2022/08/30 02:36:05;;;;;;;10.77;5.00;;;14.50;99.90;;;;;;5035388;28;20045;-85
2022/08/30 02:38:31;;;;;;;7.95;4.68;;;14.50;99.90;;;;;;5017839;28;20037;-85
2022/08/30 02:40:57;;;;;;;7.53;4.72;;;14.50;99.90;;;;;;5017777;28;20057;-85
2022/08/30 02:43:23;;;;;;;7.63;4.50;;;14.50;99.90;;;;;;5017747;28;20053;-86
2022/08/30 02:45:49;;;;;;;8.93;4.60;;;14.50;99.90;;;;;;5017641;28;20037;-84
2022/08/30 02:48:14;;;;;;;8.50;3.97;;;14.50;99.90;;;;;;5018027;28;20114;-85
2022/08/30 02:50:43;;;;;;;7.32;5.20;;;14.50;99.90;;;;;;5034811;28;20041;-84
2022/08/30 02:53:09;;;;;;;8.35;5.47;;;14.50;99.90;;;;;;5016966;28;20046;-84
2022/08/30 02:55:34;;;;;;;7.88;5.88;;;14.40;99.90;;;;;;5035039;28;20049;-85
2022/08/30 02:58:01;;;;;;;8.70;5.22;;;14.40;99.90;;;;;;5034714;28;20045;-85
2022/08/30 03:00:27;;;;;;;7.05;4.57;;;14.50;99.90;;;;;;5035001;28;20132;-85
2022/08/30 03:02:53;;;;;;;10.30;6.32;;;14.40;99.90;;;;;;4985163;28;20139;-85
2022/08/30 03:05:19;;;;;;;10.48;6.07;;;14.40;99.90;;;;;;5017649;28;20041;-84
2022/08/30 03:07:46;;;;;;;9.52;5.75;;;14.40;99.90;;;;;;5035023;28;20430;-84
2022/08/30 03:10:12;;;;;;;6.97;5.60;;;14.40;99.90;;;;;;5034653;28;20049;-84
2022/08/30 03:12:38;;;;;;;9.63;6.10;;;14.40;99.90;;;;;;5016921;28;20428;-85
2022/08/30 03:15:05;;;;;;;10.10;6.50;;;14.30;99.90;;;;;;5034730;28;20689;-84
2022/08/30 03:17:31;;;;;;;10.90;6.32;;;14.30;99.90;;;;;;5017285;28;20045;-84
2022/08/30 03:19:59;;;;;;;8.88;6.47;;;14.20;99.90;;;;;;5034141;28;20490;-84
2022/08/30 03:22:25;;;;;;;9.43;6.45;;;14.20;99.90;;;;;;5016947;28;20045;-85
2022/08/30 03:24:50;;;;;;;10.05;6.60;;;14.20;99.90;;;;;;5017013;28;20441;-84
2022/08/30 03:27:16;;;;;;;10.70;6.57;;;14.20;99.90;;;;;;5034308;28;20103;-86
2022/08/30 03:29:42;;;;;;;10.70;6.60;;;14.10;99.90;;;;;;5000737;28;20045;-84
2022/08/30 03:32:07;;;;;;;9.20;7.03;;;14.10;99.90;;;;;;5016811;28;20519;-84
2022/08/30 03:34:33;;;;;;;12.32;7.65;;;14.10;99.90;;;;;;5000144;28;20053;-84
2022/08/30 03:37:00;;;;;;;13.40;7.00;;;14.00;99.90;;;;;;5016841;28;20048;-84
2022/08/30 03:39:26;;;;;;;9.82;6.82;;;14.00;99.90;;;;;;5016864;28;20124;-84
2022/08/30 03:41:52;;;;;;;9.10;7.20;;;13.90;99.90;;;;;;5033901;28;20183;-85
2022/08/30 03:44:19;;;;;;;6.07;5.05;;;13.80;99.90;;;;;;5034446;28;20050;-85
2022/08/30 03:46:45;;;;;;;11.60;6.55;;;13.80;99.90;;;;;;5016725;28;20056;-84
2022/08/30 03:49:11;;;;;;;9.10;6.00;;;13.80;99.90;;;;;;5016462;28;20410;-84
2022/08/30 03:51:37;;;;;;;8.55;6.95;;;13.80;99.90;;;;;;5016218;28;20160;-84
2022/08/30 03:54:03;;;;;;;9.32;7.03;;;13.70;99.90;;;;;;5016530;28;20486;-85
2022/08/30 03:56:29;;;;;;;10.27;7.43;;;13.70;99.90;;;;;;5016507;28;20080;-85
2022/08/30 03:58:54;;;;;;;9.32;7.13;;;13.70;99.90;;;;;;5033947;28;20453;-84
2022/08/30 04:01:20;;;;;;;8.38;6.80;;;13.60;99.90;;;;;;5033935;28;20053;-84
2022/08/30 04:03:46;;;;;;;11.52;7.05;;;13.60;99.90;;;;;;5015852;28;20045;-84
2022/08/30 04:06:11;;;;;;;8.82;6.15;;;13.60;99.90;;;;;;5033462;28;20107;-84
2022/08/30 04:08:38;;;;;;;9.85;6.80;;;13.60;99.90;;;;;;5016086;28;20517;-84
2022/08/30 04:11:04;;;;;;;8.60;6.85;;;13.50;99.90;;;;;;5016040;28;20056;-84
2022/08/30 04:13:29;;;;;;;11.48;7.30;;;13.50;99.90;;;;;;5016247;28;20565;-85
2022/08/30 04:15:55;;;;;;;6.53;4.90;;;13.50;99.90;;;;;;5034004;28;20053;-84
2022/08/30 04:18:21;;;;;;;6.95;6.20;;;13.50;99.90;;;;;;5015973;28;20399;-85
2022/08/30 04:20:47;;;;;;;7.38;5.90;;;13.40;99.90;;;;;;4999456;28;20396;-84
2022/08/30 04:23:13;;;;;;;9.88;7.70;;;13.40;99.90;;;;;;5033659;28;20049;-84
2022/08/30 04:25:40;;;;;;;9.18;6.47;;;13.30;99.90;;;;;;5015667;28;20142;-87
2022/08/30 04:28:07;;;;;;;11.73;8.32;;;13.30;99.90;;;;;;5033507;28;20068;-85
2022/08/30 04:30:37;;;;;;;9.85;7.53;;;13.30;99.90;;;;;;5022683;28;20049;-84
2022/08/30 04:33:02;;;;;;;11.65;8.13;;;13.20;99.90;;;;;;5006196;28;20056;-85
2022/08/30 04:35:28;;;;;;;10.93;8.60;;;13.20;99.90;;;;;;5014894;28;20128;-84
2022/08/30 04:37:54;;;;;;;10.95;6.90;;;13.20;99.90;;;;;;5014632;28;20510;-84
2022/08/30 04:40:19;;;;;;;9.63;8.57;;;13.20;99.90;;;;;;5014970;28;20045;-87
2022/08/30 04:42:46;;;;;;;9.43;7.13;;;13.10;99.90;;;;;;5032414;28;20053;-84
2022/08/30 04:45:14;;;;;;;11.45;7.38;;;13.10;99.90;;;;;;5033527;28;20072;-84
2022/08/30 04:47:42;;;;;;;11.55;8.70;;;13.10;99.90;;;;;;5015892;28;20053;-84
2022/08/30 04:50:10;;;;;;;8.13;6.35;;;13.10;99.90;;;;;;5032763;28;20164;-85
2022/08/30 04:52:36;;;;;;;10.85;8.57;;;13.10;99.90;;;;;;5015642;28;20407;-85
2022/08/30 04:55:03;;;;;;;10.65;7.47;;;13.00;99.90;;;;;;5032833;28;20107;-85
2022/08/30 04:57:29;;;;;;;13.75;8.20;;;13.10;99.90;;;;;;5032077;28;20048;-84
2022/08/30 04:59:55;;;;;;;13.65;9.00;;;13.10;99.90;;;;;;5015286;28;20053;-83
2022/08/30 05:02:20;;;;;;;10.50;6.65;;;13.10;99.90;;;;;;5015455;28;20046;-84
2022/08/30 05:07:31;;;;;;;12.85;9.07;;;13.00;99.90;;;;;;5015335;28;20395;-84
2022/08/30 05:09:57;;;;;;;9.68;8.23;;;13.00;99.90;;;;;;5015952;28;20053;-84
2022/08/30 05:12:23;;;;;;;10.48;8.70;;;12.90;99.90;;;;;;5031982;28;20053;-84
2022/08/30 05:14:49;;;;;;;13.43;8.70;;;12.90;99.90;;;;;;5033017;28;20045;-84
2022/08/30 05:17:15;;;;;;;15.18;9.82;;;12.90;99.90;;;;;;5019135;28;20107;-84
2022/08/30 05:19:41;;;;;;;12.52;9.48;;;12.90;99.90;;;;;;5018706;28;20033;-84
2022/08/30 05:22:07;;;;;;;11.73;6.30;;;12.90;99.90;;;;;;5002892;28;20137;-84
2022/08/30 05:24:33;;;;;;;13.45;9.15;;;12.90;99.90;;;;;;5019427;28;20049;-84
2022/08/30 05:26:59;;;;;;;12.07;9.55;;;12.90;99.90;;;;;;5019341;28;20469;-84
2022/08/30 05:29:25;;;;;;;10.70;7.85;;;12.90;99.90;;;;;;5019092;28;20085;-85
2022/08/30 05:31:50;;;;;;;11.05;7.68;;;12.90;99.90;;;;;;5019344;28;20092;-86
2022/08/30 05:34:16;;;;;;;11.20;7.57;;;13.00;99.90;;;;;;5018938;28;20046;-84
2022/08/30 05:36:42;;;;;;;11.95;8.02;;;13.00;99.90;;;;;;5018798;28;20045;-86
2022/08/30 05:39:09;;;;;;;10.50;6.78;;;13.10;99.90;;;;;;5036454;28;20413;-85
2022/08/30 05:41:36;;;;;;;9.48;6.95;;;13.10;99.90;;;;;;5019588;28;20045;-84
2022/08/30 05:44:03;;;;;;;9.68;6.80;;;13.20;99.90;;;;;;5036395;28;20102;-84
2022/08/30 05:46:32;;;;;;;10.48;7.90;;;13.20;99.90;;;;;;5036300;28;20046;-86
2022/08/30 05:49:00;;;;;;;11.73;8.63;;;13.20;99.90;;;;;;5018837;28;20414;-84
2022/08/30 05:51:28;;;;;;;10.38;7.22;;;13.30;99.90;;;;;;5018734;28;20080;-84
2022/08/30 05:53:55;;;;;;;9.85;6.90;;;13.40;99.90;;;;;;5035278;28;20155;-84
2022/08/30 05:56:25;;;;;;;10.68;7.20;;;13.50;99.90;;;;;;5018520;28;20053;-84
2022/08/30 05:58:51;;;;;;;7.97;6.78;;;13.50;99.90;;;;;;5036340;28;20042;-86
2022/08/30 06:01:33;;;;;;;7.80;5.72;;;13.50;99.90;;;;;;5018346;28;20095;-86
2022/08/30 06:04:00;;;;;;;9.98;6.03;;;13.60;99.90;;;;;;5036150;28;20045;-84
2022/08/30 06:06:27;;;;;;;9.32;6.05;;;13.70;99.90;;;;;;5035993;28;20057;-83
2022/08/30 06:08:54;;;;;;;7.65;5.38;;;13.70;99.90;;;;;;5018541;28;20050;-85
2022/08/30 06:11:22;;;;;;;8.52;6.20;;;13.80;99.90;;;;;;5018688;28;20558;-85
2022/08/30 06:13:48;;;;;;;9.02;5.40;;;13.90;99.90;;;;;;5034225;28;20041;-84
2022/08/30 06:16:17;;;;;;;8.30;5.72;;;13.90;99.90;;;;;;5018112;28;20506;-86
2022/08/30 06:18:42;;;;;;;7.40;5.93;;;14.00;99.90;;;;;;5035730;28;20124;-86
2022/08/30 06:21:18;;;;;;;7.57;5.50;;;14.10;99.90;;;;;;5035509;28;20120;-86
2022/08/30 06:23:44;;;;;;;9.93;7.30;;;14.20;99.90;;;;;;5034823;28;20050;-83
2022/08/30 06:26:10;;;;;;;9.88;6.13;;;14.30;99.90;;;;;;5018064;28;20052;-84
2022/08/30 06:28:35;;;;;;;9.02;6.70;;;14.30;99.90;;;;;;5016795;28;20128;-92
2022/08/30 06:31:04;;;;;;;8.30;6.00;;;14.40;99.90;;;;;;5035772;28;20124;-92
2022/08/30 06:33:30;;;;;;;8.98;6.93;;;14.50;99.90;;;;;;5018638;28;20486;-91
2022/08/30 06:36:02;;;;;;;10.27;6.57;;;14.60;99.90;;;;;;5018305;28;20049;-88
2022/08/30 06:38:27;;;;;;;9.40;6.25;;;14.60;99.90;;;;;;5035386;28;20037;-90
2022/08/30 06:40:53;;;;;;;10.50;6.20;;;14.70;99.90;;;;;;5018158;28;20045;-90
2022/08/30 06:43:19;;;;;;;8.73;6.05;;;14.80;99.90;;;;;;5017769;28;20509;-91
2022/08/30 06:45:44;;;;;;;9.48;4.78;;;14.90;99.90;;;;;;5018214;28;20364;-94
2022/08/30 06:48:10;;;;;;;8.27;5.53;;;15.00;99.90;;;;;;5001690;28;20416;-93
2022/08/30 06:50:35;;;;;;;10.52;5.75;;;15.00;99.90;;;;;;5034974;28;20372;-88
2022/08/30 06:53:04;;;;;;;6.45;5.43;;;15.10;99.90;;;;;;5035801;28;20045;-88
2022/08/30 06:55:33;;;;;;;9.88;4.90;;;15.20;99.90;;;;;;5001652;28;20052;-92
2022/08/30 06:58:03;;;;;;;8.52;4.25;;;15.30;99.90;;;;;;5019100;28;20049;-91
2022/08/30 07:00:29;;;;;;;5.57;3.90;;;15.40;99.90;;;;;;5020199;28;20384;-92
2022/08/30 07:02:56;;;;;;;7.03;4.05;;;15.50;99.90;;;;;;5038136;28;20056;-94
2022/08/30 07:05:22;;;;;;;6.55;3.38;;;15.60;99.90;;;;;;5034498;28;20128;-90
2022/08/30 07:07:52;;;;;;;5.45;3.58;;;15.70;99.90;;;;;;5017396;28;20096;-90
2022/08/30 07:10:17;;;;;;;6.25;3.33;;;15.70;99.90;;;;;;5017365;28;20053;-89
2022/08/30 07:12:43;;;;;;;3.88;2.80;;;15.80;99.90;;;;;;5035038;28;20525;-92
2022/08/30 07:15:10;;;;;;;4.38;2.92;;;15.90;99.90;;;;;;5017574;28;20394;-88
2022/08/30 07:20:20;;;;;;;5.05;2.45;;;16.10;99.90;;;;;;5006216;28;20132;-91
2022/08/30 07:22:47;;;;;;;5.28;2.28;;;16.20;99.90;;;;;;5022643;28;20084;-89
2022/08/30 07:25:14;;;;;;;8.32;2.40;;;16.30;99.90;;;;;;4985878;28;20053;-88
2022/08/30 07:27:40;;;;;;;5.70;1.83;;;16.40;99.90;;;;;;5035081;28;20053;-89
2022/08/30 07:30:07;;;;;;;5.50;1.73;;;16.50;99.90;;;;;;5019945;28;20056;-90
2022/08/30 07:32:33;;;;;;;13.48;1.75;;;16.60;99.90;;;;;;5036349;28;20045;-89
2022/08/30 07:34:59;;;;;;;2.38;1.33;;;16.70;99.90;;;;;;5023513;28;20543;-91
2022/08/30 07:37:25;;;;;;;2.83;1.13;;;16.70;99.90;;;;;;5003387;28;20060;-90
2022/08/30 07:39:51;;;;;;;3.30;1.33;;;16.80;99.90;;;;;;5003042;28;20038;-89
2022/08/30 07:42:17;;;;;;;5.07;1.17;;;16.90;99.90;;;;;;5038545;28;20049;-85
2022/08/30 07:44:43;;;;;;;4.70;1.60;;;17.00;99.90;;;;;;5019109;28;20053;-87
2022/08/30 07:47:09;;;;;;;5.22;1.50;;;17.10;99.90;;;;;;5034827;28;20076;-89
2022/08/30 07:49:36;;;;;;;1.60;1.00;;;17.20;99.90;;;;;;5036535;28;20054;-87
2022/08/30 07:52:02;;;;;;;2.45;1.20;;;17.30;99.90;;;;;;5037315;28;20088;-93
2022/08/30 07:54:28;;;;;;;3.35;1.50;;;17.40;99.90;;;;;;5017106;28;20132;-88
2022/08/30 07:56:54;;;;;;;2.45;1.13;;;17.50;99.90;;;;;;5034042;28;20469;-88
2022/08/30 07:59:24;;;;;;;3.20;1.15;;;17.60;99.90;;;;;;5016752;28;20410;-89
2022/08/30 08:01:49;;;;;;;3.63;1.10;;;17.70;99.90;;;;;;5000756;28;20115;-90
2022/08/30 08:04:15;;;;;;;4.70;1.20;;;17.80;99.90;;;;;;5034651;28;20045;-89
2022/08/30 08:06:41;;;;;;;9.13;1.50;;;17.90;99.90;;;;;;4999978;28;20057;-90
2022/08/30 08:09:07;;;;;;;2.30;0.90;;;18.00;99.90;;;;;;5016634;28;20084;-90
2022/08/30 08:11:34;;;;;;;5.07;1.20;;;18.00;99.90;;;;;;5016570;28;20045;-90
2022/08/30 08:14:01;;;;;;;3.85;1.13;;;18.10;99.90;;;;;;5016957;28;20057;-89
2022/08/30 08:16:29;;;;;;;3.17;1.40;;;18.30;99.90;;;;;;5033776;28;20128;-90
2022/08/30 08:18:55;;;;;;;2.10;1.17;;;18.40;99.90;;;;;;5016204;28;20057;-87
2022/08/30 08:21:23;;;;;;;3.75;1.30;;;18.50;99.90;;;;;;5033140;28;20510;-89
2022/08/30 08:23:49;;;;;;;3.22;1.38;;;18.70;99.90;;;;;;5016377;28;20045;-88
2022/08/30 08:26:16;;;;;;;2.55;1.10;;;18.80;99.90;;;;;;5000190;28;20049;-88
2022/08/30 08:28:42;;;;;;;2.80;1.23;;;18.90;99.90;;;;;;5016239;28;20042;-88
2022/08/30 08:31:20;;;;;;;5.15;1.50;;;19.00;99.90;;;;;;5016268;28;20056;-88
2022/08/30 08:33:46;;;;;;;3.45;1.20;;;19.20;99.90;;;;;;5032480;28;20073;-91
2022/08/30 08:36:12;;;;;;;3.78;1.42;;;19.30;99.90;;;;;;5016527;28;20061;-87
2022/08/30 08:38:38;;;;;;;4.07;1.08;;;19.40;99.90;;;;;;5016475;28;20122;-93
2022/08/30 08:41:12;;;;;;;3.25;1.42;;;19.60;99.90;;;;;;5016386;28;20100;-94
2022/08/30 08:43:39;;;;;;;2.95;1.35;;;19.80;99.90;;;;;;4999596;28;20091;-91
2022/08/30 08:46:27;;;;;;;1.77;1.20;;;19.90;99.90;;;;;;5016299;28;20154;-88
2022/08/30 08:49:00;;;;;;;3.03;1.35;;;20.00;99.90;;;;;;5016485;28;20099;-82
2022/08/30 08:54:45;;;;;;;4.50;1.13;;;20.60;99.90;;;;;;5020272;28;20064;-88
2022/08/30 08:57:11;;;;;;;2.85;1.20;;;21.80;99.90;;;;;;5020166;28;20610;-90
2022/08/30 08:59:37;;;;;;;2.35;1.15;;;23.00;98.70;;;;;;5004099;28;20052;-94
2022/08/30 09:02:23;;;;;;;2.60;1.10;;;24.00;88.80;;;;;;5019827;28;20505;-90
2022/08/30 09:04:53;;;;;;;2.70;1.48;;;24.70;90.80;;;;;;5019871;28;20044;-89
2022/08/30 09:07:25;;;;;;;2.38;1.10;;;25.60;72.60;;;;;;5019448;28;20054;-89
2022/08/30 09:09:51;;;;;;;3.95;1.15;;;26.40;68.70;;;;;;5020147;28;20057;-88
2022/08/30 09:12:17;;;;;;;2.15;1.15;;;26.80;64.10;;;;;;5003209;28;20111;-88
2022/08/30 09:14:50;;;;;;;4.15;1.40;;;27.20;63.20;;;;;;5019635;28;20045;-88
2022/08/30 09:17:18;;;;;;;6.72;1.63;;;27.80;62.30;;;;;;5019792;28;20045;-92
2022/08/30 09:19:44;;;;;;;4.32;1.40;;;28.20;60.20;;;;;;5037161;28;20041;-85
2022/08/30 09:22:20;;;;;;;2.03;1.30;;;28.30;58.30;;;;;;5019207;28;20064;-93
2022/08/30 09:24:59;;;;;;;3.65;1.35;;;28.20;58.80;;;;;;5020990;28;20042;-90
2022/08/30 09:27:35;;;;;;;2.50;1.30;;;28.10;58.50;;;;;;5037486;28;20052;-92
2022/08/30 09:30:04;;;;;;;4.43;1.63;;;28.10;57.80;;;;;;5019864;28;20053;-91
2022/08/30 09:32:37;;;;;;;1.92;1.08;;;28.30;57.30;;;;;;5019844;28;20088;-85
2022/08/30 09:35:09;;;;;;;3.42;1.27;;;28.70;56.80;;;;;;5037237;28;20060;-94
2022/08/30 09:37:51;;;;;;;4.25;1.50;;;28.90;55.20;;;;;;5038054;28;20110;-92
2022/08/30 09:40:25;;;;;;;4.72;1.35;;;29.10;52.30;;;;;;5003719;28;20487;-88
2022/08/30 09:43:20;;;;;;;3.40;1.20;;;29.40;53.80;;;;;;5021445;28;20461;-89
2022/08/30 09:46:08;;;;;;;5.57;1.30;;;29.80;53.90;;;;;;5037004;28;20056;-91
2022/08/30 09:48:43;;;;;;;3.75;1.30;;;30.30;51.50;;;;;;5039996;28;20084;-92
2022/08/30 09:51:12;;;;;;;2.28;1.00;;;30.50;50.10;;;;;;5020603;28;20042;-92
2022/08/30 09:54:02;;;;;;;4.50;1.02;;;30.40;49.40;;;;;;5020278;28;20053;-90
2022/08/30 09:56:54;;;;;;;1.88;1.08;;;30.40;49.50;;;;;;5047993;28;20124;-88
2022/08/30 09:59:36;;;;;;;1.48;1.10;;;30.60;48.70;;;;;;4997335;28;20482;-92
2022/08/30 10:02:29;;;;;;;2.65;1.10;;;30.80;49.30;;;;;;5004261;28;20486;-90
2022/08/30 10:05:21;;;;;;;3.13;1.25;;;31.10;48.60;;;;;;5020430;28;20053;-91
2022/08/30 10:08:01;;;;;;;2.70;1.13;;;31.20;48.90;;;;;;5020064;28;20092;-86
2022/08/30 10:10:51;;;;;;;3.42;1.13;;;31.40;47.00;;;;;;5005607;28;20053;-96
2022/08/30 10:13:27;;;;;;;3.60;1.13;;;31.30;47.40;;;;;;5037976;28;20115;-91
2022/08/30 10:16:14;;;;;;;1.52;1.00;;;31.20;47.90;;;;;;5003592;28;20517;-92
2022/08/30 10:19:01;;;;;;;4.78;1.00;;;31.20;47.00;;;;;;5021078;28;20042;-92
2022/08/30 10:22:29;;;;;;;4.45;1.20;;;31.10;47.70;;;;;;5003343;28;20475;-91
2022/08/30 10:25:05;;;;;;;2.65;1.10;;;30.90;46.60;;;;;;4943318;28;20059;-92
2022/08/30 10:27:49;;;;;;;2.65;1.10;;;30.70;47.90;;;;;;5006312;28;20049;-85
2022/08/30 10:30:16;;;;;;;3.17;1.30;;;30.70;48.00;;;;;;5037296;28;20084;-94
2022/08/30 10:32:51;;;;;;;2.78;1.20;;;30.50;48.50;;;;;;4986176;28;20069;-89
2022/08/30 10:35:49;;;;;;;1.27;1.00;;;30.60;47.70;;;;;;5019667;28;20049;-88
2022/08/30 10:38:31;;;;;;;1.10;0.80;;;31.20;47.00;;;;;;5019277;28;20057;-90
2022/08/30 10:41:12;;;;;;;3.10;1.08;;;31.60;45.90;;;;;;5002246;28;20140;-89
2022/08/30 10:43:40;;;;;;;1.73;0.85;;;32.10;44.90;;;;;;5018596;28;20041;-83
2022/08/30 10:46:17;;;;;;;1.38;1.00;;;32.50;44.60;;;;;;5018810;28;20145;-84
2022/08/30 10:48:46;;;;;;;2.35;1.02;;;32.50;43.20;;;;;;5018858;28;20076;-88
2022/08/30 10:51:28;;;;;;;1.30;1.10;;;32.40;43.80;;;;;;5036325;28;20045;-83
2022/08/30 10:54:00;;;;;;;2.63;1.10;;;32.40;44.10;;;;;;5036432;28;20053;-87
2022/08/30 10:56:55;;;;;;;3.92;1.13;;;32.30;43.60;;;;;;5041915;28;20041;-88
2022/08/30 10:59:21;;;;;;;1.50;1.02;;;32.30;44.60;;;;;;5020265;28;20097;-93
2022/08/30 11:02:08;;;;;;;3.15;1.00;;;32.30;43.70;;;;;;5022434;28;20077;-85
2022/08/30 11:04:58;;;;;;;2.83;1.17;;;32.20;43.60;;;;;;5004535;28;20084;-84
2022/08/30 11:07:46;;;;;;;3.20;1.23;;;32.10;43.70;;;;;;5003804;28;20092;-94
2022/08/30 11:10:28;;;;;;;1.30;0.90;;;32.10;43.60;;;;;;5003443;28;20088;-95
2022/08/30 11:13:03;;;;;;;2.58;1.00;;;32.10;44.00;;;;;;5018892;28;20053;-91
2022/08/30 11:15:35;;;;;;;2.00;0.88;;;32.10;44.50;;;;;;5018819;28;20128;-88
2022/08/30 11:18:11;;;;;;;2.20;1.10;;;32.00;44.10;;;;;;5018315;28;20521;-92
2022/08/30 11:20:46;;;;;;;2.83;1.00;;;31.80;44.30;;;;;;5018236;28;20406;-94
2022/08/30 11:23:18;;;;;;;1.95;0.95;;;31.50;43.70;;;;;;5036743;28;20095;-91
2022/08/30 11:25:56;;;;;;;2.13;0.90;;;31.30;45.10;;;;;;5001999;28;20053;-95
2022/08/30 11:28:34;;;;;;;5.68;1.17;;;31.10;43.90;;;;;;5018126;28;20183;-89
2022/08/30 11:31:07;;;;;;;2.95;1.23;;;30.80;44.90;;;;;;5018601;28;20060;-91
2022/08/30 11:33:55;;;;;;;2.72;1.05;;;30.50;45.90;;;;;;5018577;28;20099;-83
2022/08/30 11:36:27;;;;;;;7.32;1.15;;;30.30;45.40;;;;;;5034084;28;20053;-89
2022/08/30 11:38:53;;;;;;;1.50;0.75;;;30.20;45.50;;;;;;5001382;28;20406;-87
2022/08/30 11:41:29;;;;;;;2.22;0.80;;;30.20;45.70;;;;;;5018115;28;20037;-93
2022/08/30 11:44:10;;;;;;;3.47;1.10;;;30.00;45.30;;;;;;5017549;28;20060;-85
2022/08/30 11:46:38;;;;;;;2.05;1.00;;;29.80;46.00;;;;;;5017767;28;20480;-89
2022/08/30 11:49:13;;;;;;;1.02;0.80;;;29.60;46.70;;;;;;5017783;28;20053;-88
2022/08/30 11:51:57;;;;;;;3.45;1.13;;;29.60;46.30;;;;;;5017834;28;20045;-92
2022/08/30 11:54:39;;;;;;;1.67;0.80;;;29.40;46.60;;;;;;5017840;28;20491;-84
2022/08/30 11:57:20;;;;;;;1.98;0.93;;;29.20;46.70;;;;;;5017820;28;20041;-85
2022/08/30 12:00:24;;;;;;;3.03;1.27;;;28.90;47.20;;;;;;5001003;28;20506;-89
2022/08/30 12:02:55;;;;;;;1.85;1.00;;;28.70;48.10;;;;;;5017877;28;20060;-90
2022/08/30 12:05:44;;;;;;;2.08;1.17;;;28.70;48.70;;;;;;5017263;28;20049;-88
2022/08/30 12:08:23;;;;;;;1.48;0.80;;;29.00;47.50;;;;;;5005789;28;20058;-90
2022/08/30 12:10:57;;;;;;;5.85;1.23;;;29.20;48.20;;;;;;4985568;28;20057;-87
2022/08/30 12:13:35;;;;;;;2.65;1.40;;;29.50;47.70;;;;;;4983359;28;20081;-90
2022/08/30 12:16:04;;;;;;;1.13;0.93;;;29.70;47.10;;;;;;4982086;28;20052;-94
2022/08/30 12:18:41;;;;;;;3.58;1.10;;;29.90;47.20;;;;;;4998217;28;20046;-89
2022/08/30 12:21:19;;;;;;;1.88;1.08;;;29.90;47.60;;;;;;4981322;28;20128;-89
2022/08/30 12:24:06;;;;;;;3.75;1.10;;;30.00;46.90;;;;;;4998478;28;20089;-91
2022/08/30 12:26:41;;;;;;;3.40;1.20;;;29.90;47.20;;;;;;4980872;28;20064;-90
2022/08/30 12:29:12;;;;;;;2.30;0.93;;;29.20;46.90;;;;;;4997792;28;20519;-89
2022/08/30 12:31:41;;;;;;;3.28;1.00;;;28.80;47.50;;;;;;4997078;28;20046;-89
2022/08/30 12:34:08;;;;;;;1.50;1.00;;;28.80;46.80;;;;;;4996806;28;20436;-88
2022/08/30 12:36:51;;;;;;;3.35;1.00;;;28.50;46.90;;;;;;4996705;28;20107;-90
2022/08/30 12:39:29;;;;;;;2.53;0.95;;;28.00;47.60;;;;;;4996582;28;20085;-90
2022/08/30 12:42:09;;;;;;;1.85;0.98;;;27.60;48.40;;;;;;4997242;28;20140;-90
2022/08/30 12:44:35;;;;;;;3.55;1.23;;;27.00;49.30;;;;;;4982150;28;20566;-90
2022/08/30 12:47:04;;;;;;;2.88;1.17;;;26.60;49.60;;;;;;4964598;28;20061;-90
2022/08/30 12:49:35;;;;;;;2.08;0.98;;;26.30;49.90;;;;;;4996683;28;20050;-88
2022/08/30 12:52:24;;;;;;;2.38;0.80;;;26.10;50.60;;;;;;4997445;28;20049;-87
2022/08/30 12:54:51;;;;;;;1.48;0.70;;;25.90;51.40;;;;;;4997280;28;20458;-94
2022/08/30 12:57:53;;;;;;;2.50;0.90;;;25.70;52.90;;;;;;4997710;28;20045;-92
2022/08/30 13:00:31;;;;;;;1.38;0.88;;;25.50;52.80;;;;;;5013836;28;20042;-88
2022/08/30 13:03:03;;;;;;;1.52;0.70;;;25.40;54.40;;;;;;4980802;28;20053;-89
2022/08/30 13:05:34;;;;;;;3.13;0.90;;;25.30;54.20;;;;;;4980650;28;20114;-89
2022/08/30 13:08:18;;;;;;;3.95;1.20;;;25.30;54.90;;;;;;4996246;28;20054;-85
2022/08/30 13:11:00;;;;;;;2.55;0.90;;;25.10;55.20;;;;;;4996843;28;20104;-95